Time;durP1;ratioP1;P1;durP2;ratioP2;P2;SDS_P1;SDS_P2;PMS_P1;PMS_P2;Temp;Humidity;BMP_temperature;BMP_pressure;BME280_temperature;BME280_humidity;BME280_pressure;Samples;Min_cycle;Max_cycle;Signal;HPM_P1;HPM_P2
2021/03/23 00:01:20;;;;;;;5.65;3.90;;;8.30;67.20;;;;;;5095596;28;20153;-87
2021/03/23 00:03:48;;;;;;;7.30;4.95;;;8.40;67.20;;;;;;5091811;28;20016;-87
2021/03/23 00:06:22;;;;;;;7.63;5.55;;;8.40;67.20;;;;;;5091893;28;20055;-85
2021/03/23 00:08:55;;;;;;;6.78;5.00;;;8.40;67.10;;;;;;5096624;28;20027;-86
2021/03/23 00:11:25;;;;;;;;;;;8.30;67.20;;;;;;5091897;28;20361;-87
2021/03/23 00:13:51;;;;;;;8.57;6.32;;;8.20;67.20;;;;;;5091614;28;19996;-86
2021/03/23 00:16:20;;;;;;;6.60;4.65;;;8.20;67.40;;;;;;5096825;28;20065;-86
2021/03/23 00:18:46;;;;;;;6.63;4.65;;;8.10;67.50;;;;;;5092888;28;20016;-87
2021/03/23 00:21:13;;;;;;;6.35;4.55;;;8.10;67.50;;;;;;5091324;28;20024;-86
2021/03/23 00:23:39;;;;;;;7.07;4.97;;;8.10;67.50;;;;;;5096578;28;20028;-86
2021/03/23 00:26:07;;;;;;;4.95;4.05;;;8.20;67.50;;;;;;5091289;28;20099;-87
2021/03/23 00:28:33;;;;;;;5.05;3.97;;;8.20;67.60;;;;;;5090786;28;20406;-86
2021/03/23 00:30:59;;;;;;;4.65;3.67;;;8.20;67.60;;;;;;5091180;28;20032;-85
2021/03/23 00:33:25;;;;;;;5.15;3.28;;;8.20;67.60;;;;;;5087578;28;20027;-86
2021/03/23 00:35:54;;;;;;;5.68;3.80;;;8.30;67.60;;;;;;5072808;28;20016;-85
2021/03/23 00:38:20;;;;;;;7.28;4.07;;;8.20;67.60;;;;;;5090806;28;20055;-85
2021/03/23 00:40:46;;;;;;;6.78;4.13;;;8.20;67.70;;;;;;5091035;28;20055;-86
2021/03/23 00:43:12;;;;;;;3.92;3.10;;;8.20;67.70;;;;;;5088305;28;20465;-86
2021/03/23 00:45:41;;;;;;;5.93;4.20;;;8.20;67.70;;;;;;5092151;28;20071;-86
2021/03/23 00:48:08;;;;;;;5.18;4.03;;;8.20;67.80;;;;;;5089071;28;20017;-86
2021/03/23 00:50:34;;;;;;;5.93;4.00;;;8.20;67.80;;;;;;5090691;28;20028;-85
2021/03/23 00:52:59;;;;;;;4.95;3.60;;;8.20;67.80;;;;;;5090086;28;20028;-86
2021/03/23 00:55:25;;;;;;;5.32;4.00;;;8.20;67.80;;;;;;5090256;28;20062;-86
2021/03/23 00:57:51;;;;;;;5.80;4.00;;;8.20;67.90;;;;;;5090713;28;20466;-86
2021/03/23 01:00:19;;;;;;;5.50;4.43;;;8.20;67.90;;;;;;5090647;28;20020;-86
2021/03/23 01:02:45;;;;;;;5.45;3.72;;;8.20;67.80;;;;;;5086881;28;20028;-86
2021/03/23 01:05:12;;;;;;;5.25;3.50;;;8.30;67.90;;;;;;5084406;28;20074;-85
2021/03/23 01:07:37;;;;;;;6.60;5.25;;;8.20;67.80;;;;;;5091274;28;20111;-86
2021/03/23 01:10:05;;;;;;;5.72;4.35;;;8.30;67.90;;;;;;5088981;28;20115;-88
2021/03/23 01:12:30;;;;;;;7.20;5.70;;;8.20;67.90;;;;;;5085403;28;20080;-87
2021/03/23 01:14:56;;;;;;;9.35;6.03;;;8.10;68.00;;;;;;5091271;28;20040;-88
2021/03/23 01:17:22;;;;;;;8.82;6.45;;;8.10;68.30;;;;;;5084776;28;20479;-86
2021/03/23 01:19:47;;;;;;;7.57;5.30;;;7.90;68.50;;;;;;5087057;28;20028;-87
2021/03/23 01:22:13;;;;;;;7.63;5.93;;;7.90;68.70;;;;;;5091659;28;20031;-87
2021/03/23 01:24:38;;;;;;;7.70;5.60;;;8.00;68.80;;;;;;5088917;28;20039;-86
2021/03/23 01:27:05;;;;;;;7.90;5.13;;;7.90;68.90;;;;;;5091725;28;20048;-87
2021/03/23 01:29:31;;;;;;;6.57;4.68;;;7.90;69.00;;;;;;5091014;28;20073;-87
2021/03/23 01:31:57;;;;;;;7.32;5.88;;;7.90;68.90;;;;;;5091879;28;20016;-88
2021/03/23 01:34:23;;;;;;;8.27;6.55;;;7.90;68.90;;;;;;5088283;28;20020;-86
2021/03/23 01:36:48;;;;;;;8.50;6.32;;;7.90;68.90;;;;;;5092051;28;20028;-86
2021/03/23 01:39:14;;;;;;;5.88;4.45;;;7.80;69.10;;;;;;5083744;28;20024;-87
2021/03/23 01:41:40;;;;;;;8.73;6.38;;;7.80;69.10;;;;;;5091923;28;20063;-86
2021/03/23 01:44:05;;;;;;;9.30;6.78;;;7.80;69.10;;;;;;5089278;28;20645;-86
2021/03/23 01:46:44;;;;;;;7.05;4.93;;;7.80;69.20;;;;;;5071627;28;20044;-88
2021/03/23 01:49:29;;;;;;;5.95;5.00;;;7.80;69.30;;;;;;5087417;28;20107;-89
2021/03/23 01:51:58;;;;;;;6.63;5.00;;;7.80;69.30;;;;;;5078280;28;20055;-89
2021/03/23 01:54:29;;;;;;;7.63;5.63;;;7.80;69.30;;;;;;5090149;28;20020;-89
2021/03/23 01:57:00;;;;;;;10.00;6.60;;;7.80;69.30;;;;;;5090356;28;20024;-86
2021/03/23 01:59:29;;;;;;;7.28;5.65;;;7.80;69.30;;;;;;5088677;28;20020;-87
2021/03/23 02:01:58;;;;;;;10.25;6.80;;;7.80;69.30;;;;;;5090739;28;20055;-88
2021/03/23 02:04:24;;;;;;;7.47;5.22;;;7.80;69.30;;;;;;5089015;28;20101;-88
2021/03/23 02:06:50;;;;;;;9.45;7.10;;;7.70;69.30;;;;;;5090305;28;20036;-87
2021/03/23 02:09:30;;;;;;;7.60;4.78;;;7.70;69.30;;;;;;5081249;28;20016;-87
2021/03/23 02:12:10;;;;;;;6.40;4.80;;;7.70;69.30;;;;;;5072813;28;20052;-88
2021/03/23 02:14:42;;;;;;;8.07;5.68;;;7.80;69.30;;;;;;5085870;28;20040;-88
2021/03/23 02:17:18;;;;;;;7.63;5.15;;;7.70;69.30;;;;;;5079396;28;20052;-88
2021/03/23 02:19:45;;;;;;;6.32;4.80;;;7.80;69.30;;;;;;5085080;28;20024;-88
2021/03/23 02:22:20;;;;;;;7.00;4.28;;;7.70;69.40;;;;;;5080100;28;20027;-86
2021/03/23 02:24:45;;;;;;;7.60;4.70;;;7.80;69.30;;;;;;5087389;28;20543;-86
2021/03/23 02:27:11;;;;;;;7.40;4.80;;;7.80;69.20;;;;;;5085976;28;20032;-87
2021/03/23 02:29:36;;;;;;;8.93;6.50;;;7.90;69.20;;;;;;5088498;28;20016;-86
2021/03/23 02:32:02;;;;;;;7.95;5.90;;;7.80;69.00;;;;;;5085990;28;20039;-87
2021/03/23 02:34:28;;;;;;;8.60;6.20;;;7.80;69.00;;;;;;5089992;28;20012;-87
2021/03/23 02:36:53;;;;;;;9.38;6.57;;;7.80;69.00;;;;;;5090138;28;20099;-86
2021/03/23 02:39:22;;;;;;;7.60;5.53;;;7.80;69.20;;;;;;5086844;28;20145;-86
2021/03/23 02:41:48;;;;;;;7.68;4.93;;;7.80;69.10;;;;;;5073395;28;20479;-87
2021/03/23 02:44:14;;;;;;;9.32;6.35;;;7.90;69.10;;;;;;5073647;28;20108;-87
2021/03/23 02:46:39;;;;;;;11.07;7.32;;;7.80;69.00;;;;;;5082358;28;20020;-87
2021/03/23 02:49:06;;;;;;;7.35;5.25;;;7.80;69.10;;;;;;5089594;28;20024;-86
2021/03/23 02:51:32;;;;;;;6.28;4.80;;;7.80;69.10;;;;;;5088356;28;20020;-87
2021/03/23 02:53:57;;;;;;;6.82;4.97;;;7.80;69.10;;;;;;5089497;28;20023;-85
2021/03/23 02:56:23;;;;;;;8.65;6.00;;;7.90;69.10;;;;;;5088859;28;20377;-87
2021/03/23 02:58:48;;;;;;;11.32;7.68;;;7.80;69.10;;;;;;5089970;28;20054;-85
2021/03/23 03:01:15;;;;;;;8.10;6.40;;;7.80;69.20;;;;;;5089946;28;20028;-87
2021/03/23 03:03:41;;;;;;;8.85;6.40;;;7.80;69.30;;;;;;5088496;28;20035;-87
2021/03/23 03:06:07;;;;;;;8.35;6.00;;;7.80;69.30;;;;;;5083081;28;20036;-86
2021/03/23 03:08:33;;;;;;;13.85;9.40;;;7.90;69.40;;;;;;5085636;28;20050;-87
2021/03/23 03:10:59;;;;;;;13.10;9.70;;;7.80;69.30;;;;;;5087019;28;20474;-87
2021/03/23 03:13:25;;;;;;;12.90;9.32;;;7.80;69.50;;;;;;5084266;28;20035;-87
2021/03/23 03:15:53;;;;;;;11.27;8.27;;;7.80;69.50;;;;;;5085719;28;20478;-86
2021/03/23 03:18:19;;;;;;;8.68;6.50;;;7.80;69.70;;;;;;5087513;28;20472;-87
2021/03/23 03:20:45;;;;;;;11.35;7.97;;;7.80;70.30;;;;;;5087829;28;20479;-87
2021/03/23 03:23:12;;;;;;;12.55;8.82;;;7.80;69.60;;;;;;5088417;28;20119;-86
2021/03/23 03:25:37;;;;;;;9.38;6.75;;;7.80;69.70;;;;;;5089132;28;20039;-85
2021/03/23 03:28:04;;;;;;;11.18;8.30;;;7.80;69.70;;;;;;5086510;28;20111;-85
2021/03/23 03:30:32;;;;;;;12.00;7.60;;;7.80;69.80;;;;;;5088240;28;20025;-87
2021/03/23 03:32:59;;;;;;;13.80;10.30;;;7.80;69.80;;;;;;5091741;28;20012;-86
2021/03/23 03:35:27;;;;;;;15.98;10.32;;;7.80;69.80;;;;;;5089402;28;20034;-87
2021/03/23 03:37:53;;;;;;;12.35;8.85;;;7.80;69.90;;;;;;5086353;28;20016;-86
2021/03/23 03:40:23;;;;;;;15.18;10.95;;;7.70;69.90;;;;;;5092929;28;20098;-87
2021/03/23 03:42:49;;;;;;;17.40;11.45;;;7.70;69.90;;;;;;5082549;28;20028;-86
2021/03/23 03:45:15;;;;;;;15.93;9.88;;;7.80;69.90;;;;;;5101177;28;20034;-87
2021/03/23 03:47:41;;;;;;;17.67;12.25;;;7.70;69.90;;;;;;5087144;28;20036;-87
2021/03/23 03:50:07;;;;;;;17.30;11.75;;;7.70;70.00;;;;;;5089473;28;20386;-87
2021/03/23 03:52:32;;;;;;;16.13;11.82;;;7.70;70.10;;;;;;5082294;28;20106;-87
2021/03/23 03:54:58;;;;;;;17.70;12.82;;;7.70;70.10;;;;;;5074424;28;20020;-88
2021/03/23 03:57:23;;;;;;;16.33;11.30;;;7.70;70.10;;;;;;5086967;28;20032;-87
2021/03/23 03:59:49;;;;;;;15.60;10.25;;;7.50;70.00;;;;;;5089054;28;20094;-86
2021/03/23 04:02:15;;;;;;;15.77;11.35;;;7.60;70.10;;;;;;5083768;28;20024;-87
2021/03/23 04:04:44;;;;;;;14.32;10.43;;;7.60;70.10;;;;;;5071938;28;20032;-86
2021/03/23 04:07:09;;;;;;;14.68;9.77;;;7.60;70.10;;;;;;5074983;28;20032;-88
2021/03/23 04:09:35;;;;;;;15.13;10.63;;;7.60;70.10;;;;;;5089297;28;20048;-87
2021/03/23 04:12:01;;;;;;;12.23;8.55;;;7.60;70.00;;;;;;5088600;28;20035;-87
2021/03/23 04:14:26;;;;;;;9.63;6.85;;;7.70;70.00;;;;;;5089367;28;20482;-87
2021/03/23 04:16:52;;;;;;;17.75;10.75;;;7.70;70.00;;;;;;5083589;28;20019;-87
2021/03/23 04:19:18;;;;;;;15.63;10.45;;;7.70;70.10;;;;;;5089212;28;20031;-87
2021/03/23 04:21:43;;;;;;;12.77;9.15;;;7.70;70.00;;;;;;5088680;28;20023;-87
2021/03/23 04:24:09;;;;;;;12.25;8.57;;;7.70;70.10;;;;;;5087393;28;20574;-86
2021/03/23 04:26:34;;;;;;;13.00;9.23;;;7.70;70.10;;;;;;5087871;28;20046;-85
2021/03/23 04:29:00;;;;;;;14.15;10.02;;;7.80;70.10;;;;;;5088381;28;20020;-86
2021/03/23 04:31:37;;;;;;;13.63;9.20;;;7.70;70.00;;;;;;5079133;28;20024;-86
2021/03/23 04:34:03;;;;;;;13.98;8.95;;;7.80;70.10;;;;;;5087213;28;20035;-86
2021/03/23 04:36:29;;;;;;;11.57;8.57;;;7.70;70.10;;;;;;5092340;28;20062;-86
2021/03/23 04:38:55;;;;;;;16.13;11.60;;;7.70;70.10;;;;;;5097101;28;20436;-85
2021/03/23 04:41:21;;;;;;;13.32;8.95;;;7.70;70.20;;;;;;5106592;28;20486;-86
2021/03/23 04:43:48;;;;;;;16.65;9.02;;;7.70;70.10;;;;;;5082988;28;20028;-86
2021/03/23 04:46:19;;;;;;;10.93;8.18;;;7.70;70.10;;;;;;5084463;28;20403;-86
2021/03/23 04:48:45;;;;;;;13.32;9.00;;;7.70;70.10;;;;;;5081276;28;20020;-85
2021/03/23 04:51:12;;;;;;;17.08;12.75;;;7.70;70.10;;;;;;5087544;28;20115;-88
2021/03/23 04:53:39;;;;;;;16.45;11.77;;;7.70;70.20;;;;;;5087466;28;20031;-88
2021/03/23 04:56:06;;;;;;;14.77;9.30;;;7.70;70.30;;;;;;5090836;28;20425;-86
2021/03/23 04:58:33;;;;;;;15.20;10.68;;;7.60;70.30;;;;;;5080685;28;20040;-86
2021/03/23 05:01:00;;;;;;;16.63;11.20;;;7.60;70.20;;;;;;5088054;28;20027;-85
2021/03/23 05:03:31;;;;;;;16.17;11.05;;;7.70;70.30;;;;;;5098683;28;20088;-87
2021/03/23 05:06:05;;;;;;;10.88;8.18;;;7.70;70.30;;;;;;5107499;28;20101;-86
2021/03/23 05:08:31;;;;;;;15.10;9.88;;;7.70;70.30;;;;;;5084118;28;20023;-89
2021/03/23 05:10:57;;;;;;;15.85;12.20;;;7.70;70.40;;;;;;5101881;28;20104;-88
2021/03/23 05:13:24;;;;;;;14.85;9.15;;;7.60;70.40;;;;;;5097106;28;20035;-87
2021/03/23 05:15:51;;;;;;;12.48;8.45;;;7.70;70.50;;;;;;5103584;28;20016;-87
2021/03/23 05:18:17;;;;;;;12.25;8.10;;;7.70;70.50;;;;;;5079257;28;20031;-87
2021/03/23 05:20:42;;;;;;;13.40;9.18;;;7.70;70.50;;;;;;5091171;28;20016;-87
2021/03/23 05:23:09;;;;;;;15.27;10.80;;;7.70;70.60;;;;;;5088200;27;20063;-86
2021/03/23 05:25:34;;;;;;;14.27;10.15;;;7.60;70.60;;;;;;5089210;28;20203;-85
2021/03/23 05:28:00;;;;;;;17.10;11.30;;;7.70;70.70;;;;;;5089435;28;20107;-86
2021/03/23 05:30:26;;;;;;;11.18;7.43;;;7.60;70.80;;;;;;5094460;28;20024;-85
2021/03/23 05:32:52;;;;;;;12.20;7.95;;;7.60;70.80;;;;;;5085087;28;20119;-85
2021/03/23 05:35:18;;;;;;;11.60;7.93;;;7.60;70.80;;;;;;5088851;28;20532;-86
2021/03/23 05:37:45;;;;;;;12.50;9.07;;;7.70;70.80;;;;;;5094016;28;20024;-85
2021/03/23 05:40:38;;;;;;;12.23;8.60;;;7.70;70.80;;;;;;5090665;28;20057;-86
2021/03/23 05:43:24;;;;;;;11.00;7.80;;;7.70;70.80;;;;;;5095154;28;20476;-86
2021/03/23 05:46:12;;;;;;;12.85;7.82;;;7.70;70.80;;;;;;5091027;28;20127;-85
2021/03/23 05:48:50;;;;;;;13.85;8.25;;;7.70;70.90;;;;;;5086356;28;20020;-85
2021/03/23 05:51:31;;;;;;;15.02;9.75;;;7.60;70.90;;;;;;5105877;28;20069;-85
2021/03/23 05:54:18;;;;;;;13.82;9.02;;;7.60;71.00;;;;;;5083797;28;20067;-88
2021/03/23 05:56:46;;;;;;;12.95;8.40;;;7.60;71.10;;;;;;5104570;28;20084;-88
2021/03/23 05:59:16;;;;;;;10.10;7.07;;;7.50;71.10;;;;;;5080804;28;20020;-88
2021/03/23 06:01:56;;;;;;;15.05;8.98;;;7.50;71.30;;;;;;5076290;28;20131;-88
2021/03/23 06:04:41;;;;;;;8.70;6.43;;;7.50;71.50;;;;;;5074609;28;20028;-88
2021/03/23 06:07:12;;;;;;;11.02;7.97;;;7.50;71.50;;;;;;5070511;28;20040;-89
2021/03/23 06:09:39;;;;;;;13.50;9.55;;;7.50;71.50;;;;;;5085967;28;20020;-89
2021/03/23 06:12:41;;;;;;;17.92;9.90;;;7.50;71.50;;;;;;5090226;28;20028;-89
2021/03/23 06:15:17;;;;;;;14.23;9.07;;;7.50;71.50;;;;;;5077947;28;20023;-88
2021/03/23 06:18:02;;;;;;;11.95;8.27;;;7.60;71.50;;;;;;5091896;28;20027;-86
2021/03/23 06:20:53;;;;;;;11.82;7.60;;;7.90;71.10;;;;;;5091512;28;20028;-88
2021/03/23 06:23:39;;;;;;;10.65;7.35;;;8.10;70.00;;;;;;5083748;28;20047;-86
2021/03/23 06:26:40;;;;;;;14.88;9.60;;;8.10;69.70;;;;;;5081646;28;20156;-87
2021/03/23 06:29:18;;;;;;;13.25;8.30;;;8.10;69.90;;;;;;5091148;28;20024;-87
2021/03/23 06:31:53;;;;;;;10.93;7.35;;;8.10;70.00;;;;;;5089069;28;20024;-88
2021/03/23 06:34:24;;;;;;;10.77;7.13;;;8.20;70.00;;;;;;5078536;28;20036;-89
2021/03/23 06:36:50;;;;;;;11.60;7.78;;;8.20;70.00;;;;;;5072403;28;20056;-91
2021/03/23 06:39:17;;;;;;;13.70;8.57;;;8.30;69.80;;;;;;5082454;28;20073;-89
2021/03/23 06:41:57;;;;;;;14.00;9.07;;;8.40;69.80;;;;;;5090036;28;20107;-90
2021/03/23 06:44:41;;;;;;;13.20;9.10;;;8.50;69.70;;;;;;5079302;28;20081;-89
2021/03/23 06:47:35;;;;;;;12.38;8.80;;;8.60;69.40;;;;;;5078495;28;20037;-90
2021/03/23 06:50:16;;;;;;;12.27;6.78;;;8.80;69.20;;;;;;5085972;28;20020;-88
2021/03/23 06:52:42;;;;;;;12.55;8.82;;;8.80;69.10;;;;;;5081628;28;20031;-90
2021/03/23 06:55:23;;;;;;;13.20;9.25;;;8.70;69.10;;;;;;5081326;28;20024;-87
2021/03/23 06:57:49;;;;;;;14.40;10.20;;;8.70;69.20;;;;;;5075774;28;20028;-92
2021/03/23 07:00:15;;;;;;;11.70;8.32;;;8.70;69.30;;;;;;5083067;28;20028;-88
2021/03/23 07:02:40;;;;;;;16.13;10.05;;;8.80;69.30;;;;;;5084403;28;20050;-89
2021/03/23 07:05:34;;;;;;;14.65;10.38;;;8.80;69.30;;;;;;5082329;28;20445;-89
2021/03/23 07:07:59;;;;;;;;;;;8.70;69.30;;;;;;5105031;28;20581;-86
2021/03/23 07:10:32;;;;;;;15.70;9.88;;;8.80;69.40;;;;;;5087375;28;19943;-86
2021/03/23 07:12:59;;;;;;;14.63;9.20;;;8.80;69.40;;;;;;5085312;28;20475;-88
2021/03/23 07:15:28;;;;;;;17.48;10.90;;;8.80;69.40;;;;;;5081085;28;20020;-89
2021/03/23 07:18:06;;;;;;;17.92;10.95;;;8.90;69.30;;;;;;5080849;28;20021;-87
2021/03/23 07:20:36;;;;;;;12.75;7.50;;;9.00;69.30;;;;;;5078830;28;20444;-87
2021/03/23 07:23:04;;;;;;;11.52;7.63;;;9.10;69.20;;;;;;5082389;28;20016;-87
2021/03/23 07:25:41;;;;;;;16.38;9.27;;;9.10;68.90;;;;;;5086796;28;20063;-88
2021/03/23 07:28:28;;;;;;;14.73;9.65;;;9.30;68.90;;;;;;5092244;28;20115;-86
2021/03/23 07:31:05;;;;;;;14.05;9.18;;;9.40;68.60;;;;;;5089187;28;20547;-85
2021/03/23 07:34:19;;;;;;;14.05;9.13;;;9.50;68.60;;;;;;5092743;28;20024;-86
2021/03/23 07:36:56;;;;;;;24.00;13.75;;;9.50;68.40;;;;;;5032824;28;20021;-85
2021/03/23 07:39:29;;;;;;;20.63;12.38;;;9.50;68.60;;;;;;5075272;28;20574;-85
2021/03/23 07:42:06;;;;;;;19.55;12.02;;;9.40;68.60;;;;;;5091199;28;20046;-88
2021/03/23 07:45:06;;;;;;;25.67;15.27;;;9.40;68.80;;;;;;5077869;28;20023;-88
2021/03/23 07:47:49;;;;;;;21.90;13.20;;;9.40;68.90;;;;;;5087076;28;20036;-89
2021/03/23 07:50:26;;;;;;;21.75;12.27;;;9.40;69.10;;;;;;5082994;28;20024;-89
2021/03/23 07:53:29;;;;;;;18.83;10.82;;;9.50;69.00;;;;;;5080123;28;20025;-87
2021/03/23 07:56:13;;;;;;;26.55;14.90;;;9.40;69.10;;;;;;5091747;28;20036;-87
2021/03/23 07:58:48;;;;;;;26.10;15.70;;;9.30;69.20;;;;;;5085153;28;20317;-86
2021/03/23 08:01:49;;;;;;;24.90;13.95;;;9.30;69.50;;;;;;5090186;28;20020;-86
2021/03/23 08:04:30;;;;;;;17.98;11.27;;;9.30;69.60;;;;;;5078960;28;20347;-85
2021/03/23 08:07:36;;;;;;;20.88;11.05;;;9.20;69.70;;;;;;5072052;28;20031;-84
2021/03/23 08:10:06;;;;;;;20.95;12.63;;;9.30;69.70;;;;;;5051570;28;20120;-85
2021/03/23 08:12:58;;;;;;;39.20;22.33;;;9.30;69.70;;;;;;5027860;28;20059;-84
2021/03/23 08:15:51;;;;;;;28.50;16.95;;;9.40;69.80;;;;;;5074019;28;20397;-85
2021/03/23 08:18:41;;;;;;;28.42;17.05;;;9.30;70.00;;;;;;5089206;28;20016;-84
2021/03/23 08:21:19;;;;;;;26.35;15.52;;;9.20;70.20;;;;;;5087828;28;20032;-86
2021/03/23 08:24:22;;;;;;;22.02;13.25;;;9.30;70.50;;;;;;5088061;28;20020;-84
2021/03/23 08:27:10;;;;;;;23.73;14.02;;;9.30;70.40;;;;;;5091234;28;20040;-87
2021/03/23 08:29:57;;;;;;;25.08;15.07;;;9.30;70.50;;;;;;5082266;28;20020;-85
2021/03/23 08:32:51;;;;;;;22.23;13.32;;;9.30;70.50;;;;;;5092073;28;20024;-85
2021/03/23 08:35:51;;;;;;;26.90;16.60;;;9.30;70.60;;;;;;5086797;28;20032;-86
2021/03/23 08:38:33;;;;;;;21.92;12.45;;;9.20;70.80;;;;;;5086103;28;20028;-86
2021/03/23 08:41:39;;;;;;;23.63;14.40;;;9.20;71.00;;;;;;5088819;28;20379;-85
2021/03/23 08:44:13;;;;;;;18.35;11.40;;;9.00;71.30;;;;;;5073793;28;20039;-84
2021/03/23 08:46:39;;;;;;;24.02;13.90;;;8.90;71.60;;;;;;5088957;28;20036;-87
2021/03/23 08:49:16;;;;;;;20.75;12.52;;;8.90;71.80;;;;;;5093031;28;20039;-86
2021/03/23 08:51:49;;;;;;;22.30;13.30;;;8.90;72.10;;;;;;5088565;28;20135;-87
2021/03/23 08:54:52;;;;;;;20.92;12.35;;;8.80;72.20;;;;;;5091329;28;20024;-85
2021/03/23 08:57:18;;;;;;;;;;;8.70;72.70;;;;;;5068603;28;20813;-86
2021/03/23 08:59:50;;;;;;;18.77;10.85;;;8.60;73.00;;;;;;5078661;28;20010;-86
2021/03/23 09:02:15;;;;;;;18.98;10.77;;;8.60;73.20;;;;;;5089431;28;20040;-87
2021/03/23 09:04:44;;;;;;;24.38;13.60;;;8.60;73.40;;;;;;5085429;28;20028;-85
2021/03/23 09:07:09;;;;;;;23.27;12.60;;;8.60;73.50;;;;;;5096814;28;20039;-84
2021/03/23 09:09:37;;;;;;;20.58;11.82;;;8.60;73.80;;;;;;5094596;28;20023;-85
2021/03/23 09:12:31;;;;;;;20.92;12.23;;;8.60;73.90;;;;;;5096889;28;20035;-84
2021/03/23 09:15:10;;;;;;;23.15;13.05;;;8.60;74.00;;;;;;5085666;28;20405;-85
2021/03/23 09:17:56;;;;;;;21.55;11.77;;;8.50;74.30;;;;;;5085944;28;20055;-82
2021/03/23 09:20:34;;;;;;;15.73;9.23;;;8.50;74.40;;;;;;5080056;28;20028;-84
2021/03/23 09:23:18;;;;;;;22.13;11.30;;;8.60;74.40;;;;;;5086678;28;20032;-84
2021/03/23 09:26:00;;;;;;;21.20;11.32;;;8.60;74.50;;;;;;5089384;28;20044;-84
2021/03/23 09:28:29;;;;;;;22.92;12.88;;;8.60;74.70;;;;;;5075543;28;20024;-84
2021/03/23 09:31:06;;;;;;;23.80;13.35;;;8.60;75.00;;;;;;5080682;28;20495;-82
2021/03/23 09:33:41;;;;;;;25.17;13.40;;;8.70;75.10;;;;;;5076049;28;20797;-84
2021/03/23 09:38:39;;;;;;;18.80;10.25;;;8.80;75.00;;;;;;5088729;28;20047;-84
2021/03/23 09:41:33;;;;;;;22.35;12.80;;;9.00;74.80;;;;;;5086149;28;20056;-84
2021/03/23 09:44:05;;;;;;;25.48;14.60;;;9.10;74.60;;;;;;5086872;28;20036;-84
2021/03/23 09:46:43;;;;;;;26.30;13.83;;;9.10;74.60;;;;;;5086452;28;20036;-84
2021/03/23 09:49:26;;;;;;;33.25;17.52;;;9.20;74.60;;;;;;5087804;28;20024;-85
2021/03/23 09:52:09;;;;;;;24.80;13.77;;;9.20;74.70;;;;;;5085209;28;20532;-84
2021/03/23 09:54:52;;;;;;;21.30;11.45;;;9.20;74.50;;;;;;5089038;28;20028;-84
2021/03/23 09:57:22;;;;;;;26.98;14.70;;;9.20;74.50;;;;;;5076379;28;20035;-84
2021/03/23 09:59:53;;;;;;;26.02;13.55;;;9.20;74.50;;;;;;5085495;28;20036;-83
2021/03/23 10:02:33;;;;;;;28.27;14.60;;;9.20;74.50;;;;;;5091329;28;20028;-84
2021/03/23 10:05:23;;;;;;;27.77;15.15;;;9.20;74.60;;;;;;5085503;28;20419;-84
2021/03/23 10:07:54;;;;;;;24.63;12.95;;;9.20;74.60;;;;;;5085312;28;20048;-85
2021/03/23 10:10:33;;;;;;;28.48;15.82;;;9.30;74.60;;;;;;5081149;28;20111;-85
2021/03/23 10:13:20;;;;;;;26.85;14.73;;;9.30;74.60;;;;;;5080234;28;20027;-86
2021/03/23 10:15:46;;;;;;;23.02;13.10;;;9.20;74.70;;;;;;5088354;28;20114;-85
2021/03/23 10:18:22;;;;;;;25.08;15.35;;;9.30;74.70;;;;;;5084332;28;20103;-84
2021/03/23 10:20:59;;;;;;;26.48;14.38;;;9.30;74.80;;;;;;5088104;28;20486;-87
2021/03/23 10:23:26;;;;;;;26.23;13.95;;;9.30;74.70;;;;;;5089403;28;20012;-85
2021/03/23 10:25:54;;;;;;;18.17;10.43;;;9.30;74.70;;;;;;5086341;28;20043;-87
2021/03/23 10:28:31;;;;;;;22.77;13.02;;;9.50;74.60;;;;;;5088071;28;20068;-87
2021/03/23 10:31:00;;;;;;;21.95;12.75;;;9.50;74.50;;;;;;5087541;28;20555;-85
2021/03/23 10:33:29;;;;;;;26.73;14.85;;;9.50;74.60;;;;;;5087221;28;20024;-85
2021/03/23 10:36:02;;;;;;;27.77;14.88;;;9.40;74.70;;;;;;5087773;28;20103;-85
2021/03/23 10:38:27;;;;;;;32.35;19.42;;;9.40;75.40;;;;;;5083055;28;20039;-86
2021/03/23 10:40:56;;;;;;;21.42;12.40;;;9.40;74.70;;;;;;5088110;28;20538;-83
2021/03/23 10:43:43;;;;;;;22.65;13.10;;;9.40;74.70;;;;;;5088834;28;20059;-84
2021/03/23 10:46:39;;;;;;;17.65;10.68;;;9.50;74.70;;;;;;5087622;28;20032;-84
2021/03/23 10:49:29;;;;;;;22.70;13.50;;;9.50;74.60;;;;;;5083187;28;20124;-85
2021/03/23 10:51:57;;;;;;;24.50;13.85;;;9.50;74.60;;;;;;5086557;28;20114;-84
2021/03/23 10:54:32;;;;;;;21.98;13.10;;;9.60;74.60;;;;;;5096612;28;20044;-85
2021/03/23 10:57:18;;;;;;;32.35;18.80;;;9.70;74.40;;;;;;5085248;28;20429;-85
2021/03/23 10:59:43;;;;;;;32.20;18.55;;;9.70;74.30;;;;;;5086461;28;20052;-84
2021/03/23 11:02:17;;;;;;;27.30;15.18;;;9.80;74.30;;;;;;5083491;28;20098;-84
2021/03/23 11:05:10;;;;;;;24.80;14.43;;;9.90;74.20;;;;;;5086991;28;20028;-83
2021/03/23 11:07:37;;;;;;;;;;;9.90;73.90;;;;;;5083399;28;20035;-84
2021/03/23 11:10:07;;;;;;;18.13;11.35;;;9.90;73.60;;;;;;5081845;28;19908;-83
2021/03/23 11:12:33;;;;;;;17.88;10.25;;;9.90;73.60;;;;;;5080980;28;20044;-84
2021/03/23 11:14:59;;;;;;;28.70;16.30;;;9.90;73.50;;;;;;5074757;28;20021;-84
2021/03/23 11:17:27;;;;;;;27.60;16.38;;;10.00;73.50;;;;;;5080081;28;20157;-84
2021/03/23 11:20:00;;;;;;;23.50;14.38;;;10.10;73.40;;;;;;5083235;28;20024;-85
2021/03/23 11:22:32;;;;;;;23.10;13.50;;;10.10;73.10;;;;;;5087176;28;20028;-85
2021/03/23 11:24:59;;;;;;;23.52;14.50;;;10.20;72.80;;;;;;5078971;28;20031;-86
2021/03/23 11:27:28;;;;;;;20.75;13.20;;;10.30;72.60;;;;;;5085714;28;20206;-86
2021/03/23 11:29:58;;;;;;;26.58;15.00;;;10.50;72.30;;;;;;5075024;28;20025;-85
2021/03/23 11:32:24;;;;;;;27.88;16.95;;;10.60;72.10;;;;;;5086775;28;20070;-86
2021/03/23 11:34:50;;;;;;;27.63;15.70;;;10.60;71.70;;;;;;5088219;28;20046;-85
2021/03/23 11:37:17;;;;;;;23.75;14.05;;;10.60;71.50;;;;;;5089376;28;20028;-85
2021/03/23 11:39:42;;;;;;;27.13;16.33;;;10.60;71.50;;;;;;5088149;28;20062;-85
2021/03/23 11:42:35;;;;;;;28.52;16.17;;;10.50;71.50;;;;;;5085578;28;20020;-85
2021/03/23 11:45:25;;;;;;;29.02;17.45;;;10.50;71.50;;;;;;5085577;28;20031;-84
2021/03/23 11:47:57;;;;;;;27.05;15.45;;;10.50;71.50;;;;;;5085905;28;20476;-88
2021/03/23 11:50:26;;;;;;;21.33;12.43;;;10.50;71.40;;;;;;5088685;28;20077;-85
2021/03/23 11:52:54;;;;;;;23.25;14.57;;;10.60;71.30;;;;;;5084696;28;20722;-84
2021/03/23 11:55:23;;;;;;;27.75;16.42;;;10.60;71.30;;;;;;5090034;28;20039;-85
2021/03/23 11:57:50;;;;;;;29.05;17.02;;;10.60;71.10;;;;;;5105021;28;20032;-85
2021/03/23 12:00:16;;;;;;;31.33;19.05;;;10.60;71.00;;;;;;5092118;28;20054;-86
2021/03/23 12:02:43;;;;;;;30.42;17.70;;;10.60;70.90;;;;;;5086625;28;20527;-86
2021/03/23 12:05:10;;;;;;;22.77;14.82;;;10.60;71.10;;;;;;5080628;28;20067;-85
2021/03/23 12:07:48;;;;;;;18.45;11.88;;;10.60;71.00;;;;;;5079886;28;20032;-87
2021/03/23 12:10:21;;;;;;;21.05;12.57;;;10.60;71.00;;;;;;5078544;28;20020;-86
2021/03/23 12:12:52;;;;;;;;;;;10.70;71.00;;;;;;5084911;28;20196;-85
2021/03/23 12:15:21;;;;;;;25.70;15.75;;;10.70;71.00;;;;;;5084722;28;19915;-85
2021/03/23 12:17:51;;;;;;;33.72;19.90;;;10.70;70.80;;;;;;5087157;28;20029;-84
2021/03/23 12:20:21;;;;;;;27.67;16.55;;;10.70;70.80;;;;;;5085316;28;20032;-86
2021/03/23 12:22:49;;;;;;;24.45;13.73;;;10.70;70.90;;;;;;5083247;28;20028;-85
2021/03/23 12:25:16;;;;;;;25.73;15.60;;;10.80;70.80;;;;;;5080746;28;20021;-87
2021/03/23 12:27:42;;;;;;;28.65;15.63;;;10.80;70.60;;;;;;5085550;28;20051;-85
2021/03/23 12:30:09;;;;;;;28.00;17.67;;;10.90;70.50;;;;;;5079285;28;20021;-87
2021/03/23 12:32:36;;;;;;;27.48;16.52;;;11.00;70.10;;;;;;5079050;28;20036;-86
2021/03/23 12:35:06;;;;;;;23.27;14.38;;;11.00;69.90;;;;;;5081626;28;20390;-86
2021/03/23 12:37:32;;;;;;;24.33;14.88;;;11.10;69.90;;;;;;5080150;28;20048;-86
2021/03/23 12:39:57;;;;;;;18.85;10.80;;;11.20;69.60;;;;;;5090243;28;20055;-85
2021/03/23 12:42:26;;;;;;;29.08;17.80;;;11.20;69.50;;;;;;5085625;28;20381;-85
2021/03/23 12:44:52;;;;;;;29.00;17.23;;;11.10;69.50;;;;;;5081321;28;20033;-86
2021/03/23 12:47:18;;;;;;;18.38;10.98;;;11.10;69.50;;;;;;5079856;28;20032;-86
2021/03/23 12:49:44;;;;;;;24.20;15.20;;;11.10;69.50;;;;;;5080356;28;20032;-91
2021/03/23 12:52:13;;;;;;;24.42;14.77;;;11.10;69.50;;;;;;5096379;28;20067;-91
2021/03/23 12:54:46;;;;;;;26.70;15.57;;;11.10;70.20;;;;;;5075054;28;20031;-91
2021/03/23 12:57:22;;;;;;;24.98;15.50;;;11.30;69.60;;;;;;5096746;28;20023;-92
2021/03/23 12:59:49;;;;;;;26.38;16.67;;;11.20;69.40;;;;;;5093595;28;20012;-86
2021/03/23 13:02:24;;;;;;;23.83;14.30;;;11.30;69.40;;;;;;5090907;28;20501;-89
2021/03/23 13:04:50;;;;;;;21.63;12.07;;;11.40;69.20;;;;;;5090290;28;20021;-86
2021/03/23 13:07:22;;;;;;;21.75;13.68;;;11.50;69.20;;;;;;5083614;28;20364;-87
2021/03/23 13:09:49;;;;;;;22.83;14.05;;;11.50;69.10;;;;;;5078786;28;20021;-86
2021/03/23 13:12:16;;;;;;;30.42;16.70;;;11.50;69.10;;;;;;5079084;28;20852;-86